Terminal Aerodrome Forecast
Issued by NWS

Home | Current Version | Previous Version | Text Only | Print | Product List | Glossary On
Versions: 1 2 3 4 5 6 7 8 9 10 11 12 13 14 15
000
FTUS45 KGJT 251138
TAFTEX
TAF
KTEX 251138Z 2512/2612 13005KT P6SM SKC
     FM251800 27010KT P6SM SKC
     FM260100 12005KT P6SM SKC
     FM260600 14004KT P6SM SCT080 SCT250=

USA.gov is the U.S. government's official web portal to all federal, state and local government web resources and services.